sensor_id;sensor_type;location;lat;lon;timestamp;noise_LAeq;noise_LA_min;noise_LA_max;noise_LA01;noise_LA95
52872;Laerm;40124;52.198;9.902;2023-10-08T00:01:08;57.13;39.58;75.99;;
52872;Laerm;40124;52.198;9.902;2023-10-08T00:03:36;59.82;39.34;79.24;;
52872;Laerm;40124;52.198;9.902;2023-10-08T00:06:03;61.90;39.34;82.55;;
52872;Laerm;40124;52.198;9.902;2023-10-08T00:08:32;67.21;43.05;81.98;;
52872;Laerm;40124;52.198;9.902;2023-10-08T00:10:57;58.99;41.53;78.14;;
52872;Laerm;40124;52.198;9.902;2023-10-08T00:13:28;43.10;40.23;52.78;;
52872;Laerm;40124;52.198;9.902;2023-10-08T00:15:54;59.18;40.80;77.90;;
52872;Laerm;40124;52.198;9.902;2023-10-08T00:18:20;59.39;40.53;78.11;;
52872;Laerm;40124;52.198;9.902;2023-10-08T00:20:47;65.74;40.53;83.79;;
52872;Laerm;40124;52.198;9.902;2023-10-08T00:23:20;61.37;38.81;82.02;;
52872;Laerm;40124;52.198;9.902;2023-10-08T00:25:45;62.34;39.08;82.22;;
52872;Laerm;40124;52.198;9.902;2023-10-08T00:28:12;65.86;40.89;82.21;;
52872;Laerm;40124;52.198;9.902;2023-10-08T00:30:41;62.30;39.58;80.16;;
52872;Laerm;40124;52.198;9.902;2023-10-08T00:33:07;63.13;38.95;80.90;;
52872;Laerm;40124;52.198;9.902;2023-10-08T00:35:36;41.53;38.05;48.87;;
52872;Laerm;40124;52.198;9.902;2023-10-08T00:38:02;40.57;37.32;44.27;;
52872;Laerm;40124;52.198;9.902;2023-10-08T00:40:37;60.31;37.70;79.52;;
52872;Laerm;40124;52.198;9.902;2023-10-08T00:43:03;67.12;38.67;81.99;;
52872;Laerm;40124;52.198;9.902;2023-10-08T00:45:38;66.12;37.70;82.71;;
52872;Laerm;40124;52.198;9.902;2023-10-08T00:48:09;62.34;37.70;82.50;;
52872;Laerm;40124;52.198;9.902;2023-10-08T00:50:40;61.17;35.94;81.54;;
52872;Laerm;40124;52.198;9.902;2023-10-08T00:53:10;54.93;37.70;73.46;;
52872;Laerm;40124;52.198;9.902;2023-10-08T00:55:44;41.82;36.69;50.94;;
52872;Laerm;40124;52.198;9.902;2023-10-08T00:58:18;55.74;37.12;75.23;;
52872;Laerm;40124;52.198;9.902;2023-10-08T01:00:50;40.52;35.94;49.34;;
52872;Laerm;40124;52.198;9.902;2023-10-08T01:03:17;62.71;38.05;80.21;;
52872;Laerm;40124;52.198;9.902;2023-10-08T01:05:44;41.16;37.12;47.22;;
52872;Laerm;40124;52.198;9.902;2023-10-08T01:08:13;58.18;38.21;78.41;;
52872;Laerm;40124;52.198;9.902;2023-10-08T01:10:43;41.56;38.05;45.91;;
52872;Laerm;40124;52.198;9.902;2023-10-08T01:13:08;62.63;39.81;79.40;;
52872;Laerm;40124;52.198;9.902;2023-10-08T01:15:46;63.58;40.33;82.11;;
52872;Laerm;40124;52.198;9.902;2023-10-08T01:18:14;58.87;40.53;77.79;;
52872;Laerm;40124;52.198;9.902;2023-10-08T01:20:40;63.72;39.46;83.20;;
52872;Laerm;40124;52.198;9.902;2023-10-08T01:23:17;43.11;39.58;52.99;;
52872;Laerm;40124;52.198;9.902;2023-10-08T01:25:45;59.69;40.89;77.95;;
52872;Laerm;40124;52.198;9.902;2023-10-08T01:28:16;65.74;41.53;80.49;;
52872;Laerm;40124;52.198;9.902;2023-10-08T01:30:55;61.28;39.08;80.78;;
52872;Laerm;40124;52.198;9.902;2023-10-08T01:33:21;59.75;38.47;80.21;;
52872;Laerm;40124;52.198;9.902;2023-10-08T01:35:47;61.08;39.34;81.11;;
52872;Laerm;40124;52.198;9.902;2023-10-08T01:38:15;46.20;39.92;72.71;;
52872;Laerm;40124;52.198;9.902;2023-10-08T01:40:48;61.38;39.34;80.50;;
52872;Laerm;40124;52.198;9.902;2023-10-08T01:43:16;42.06;38.37;54.61;;
52872;Laerm;40124;52.198;9.902;2023-10-08T01:45:42;59.94;39.58;79.20;;
52872;Laerm;40124;52.198;9.902;2023-10-08T01:48:08;42.25;38.67;49.18;;
52872;Laerm;40124;52.198;9.902;2023-10-08T01:50:37;61.92;38.74;81.00;;
52872;Laerm;40124;52.198;9.902;2023-10-08T01:53:02;42.65;39.92;51.91;;
52872;Laerm;40124;52.198;9.902;2023-10-08T01:55:30;41.07;37.88;48.16;;
52872;Laerm;40124;52.198;9.902;2023-10-08T01:57:58;41.24;37.32;43.63;;
52872;Laerm;40124;52.198;9.902;2023-10-08T02:00:23;40.68;35.66;45.77;;
52872;Laerm;40124;52.198;9.902;2023-10-08T02:02:51;56.52;39.21;75.24;;
52872;Laerm;40124;52.198;9.902;2023-10-08T02:05:17;59.54;38.81;78.75;;
52872;Laerm;40124;52.198;9.902;2023-10-08T02:07:44;41.55;38.95;44.23;;
52872;Laerm;40124;52.198;9.902;2023-10-08T02:10:09;41.57;38.05;47.91;;
52872;Laerm;40124;52.198;9.902;2023-10-08T02:12:36;68.69;38.95;88.54;;
52872;Laerm;40124;52.198;9.902;2023-10-08T02:15:01;61.28;38.37;80.83;;
52872;Laerm;40124;52.198;9.902;2023-10-08T02:17:27;45.53;41.68;56.07;;
52872;Laerm;40124;52.198;9.902;2023-10-08T02:19:53;44.58;41.68;56.58;;
52872;Laerm;40124;52.198;9.902;2023-10-08T02:22:18;44.17;41.38;54.14;;
52872;Laerm;40124;52.198;9.902;2023-10-08T02:24:44;45.54;39.70;58.35;;
52872;Laerm;40124;52.198;9.902;2023-10-08T02:27:09;57.80;38.37;78.15;;
52872;Laerm;40124;52.198;9.902;2023-10-08T02:29:35;40.88;38.02;44.87;;
52872;Laerm;40124;52.198;9.902;2023-10-08T02:32:00;59.43;37.12;75.97;;
52872;Laerm;40124;52.198;9.902;2023-10-08T02:34:25;42.09;35.66;52.95;;
52872;Laerm;40124;52.198;9.902;2023-10-08T02:36:51;61.81;37.70;82.58;;
52872;Laerm;40124;52.198;9.902;2023-10-08T02:39:16;40.39;36.45;44.27;;
52872;Laerm;40124;52.198;9.902;2023-10-08T02:41:46;41.45;37.70;45.04;;
52872;Laerm;40124;52.198;9.902;2023-10-08T02:44:12;65.02;39.08;85.15;;
52872;Laerm;40124;52.198;9.902;2023-10-08T02:46:39;41.53;37.88;49.72;;
52872;Laerm;40124;52.198;9.902;2023-10-08T02:49:05;64.14;38.05;85.11;;
52872;Laerm;40124;52.198;9.902;2023-10-08T02:51:31;57.94;36.91;76.77;;
52872;Laerm;40124;52.198;9.902;2023-10-08T02:53:56;55.80;37.52;75.28;;
52872;Laerm;40124;52.198;9.902;2023-10-08T02:56:21;41.12;37.88;44.51;;
52872;Laerm;40124;52.198;9.902;2023-10-08T02:58:47;41.35;38.21;46.87;;
52872;Laerm;40124;52.198;9.902;2023-10-08T03:01:13;57.29;37.52;76.14;;
52872;Laerm;40124;52.198;9.902;2023-10-08T03:03:39;62.99;41.14;82.33;;
52872;Laerm;40124;52.198;9.902;2023-10-08T03:06:04;58.05;41.06;78.95;;
52872;Laerm;40124;52.198;9.902;2023-10-08T03:08:36;43.26;41.06;44.58;;
52872;Laerm;40124;52.198;9.902;2023-10-08T03:11:01;53.25;40.43;73.12;;
52872;Laerm;40124;52.198;9.902;2023-10-08T03:13:30;63.80;39.92;80.99;;
52872;Laerm;40124;52.198;9.902;2023-10-08T03:15:55;61.99;39.81;79.87;;
52872;Laerm;40124;52.198;9.902;2023-10-08T03:18:27;42.15;39.46;44.47;;
52872;Laerm;40124;52.198;9.902;2023-10-08T03:21:00;65.84;39.34;83.11;;
52872;Laerm;40124;52.198;9.902;2023-10-08T03:23:28;60.85;36.69;78.66;;
52872;Laerm;40124;52.198;9.902;2023-10-08T03:26:01;63.50;36.91;82.52;;
52872;Laerm;40124;52.198;9.902;2023-10-08T03:28:35;58.98;37.12;80.32;;
52872;Laerm;40124;52.198;9.902;2023-10-08T03:31:01;64.83;36.20;81.01;;
52872;Laerm;40124;52.198;9.902;2023-10-08T03:33:33;62.77;35.94;79.81;;
52872;Laerm;40124;52.198;9.902;2023-10-08T03:36:05;68.60;37.52;87.49;;
52872;Laerm;40124;52.198;9.902;2023-10-08T03:38:46;57.55;36.20;76.95;;
52872;Laerm;40124;52.198;9.902;2023-10-08T03:41:17;40.18;36.69;42.71;;
52872;Laerm;40124;52.198;9.902;2023-10-08T03:43:43;61.16;36.45;78.76;;
52872;Laerm;40124;52.198;9.902;2023-10-08T03:46:18;40.75;36.69;48.08;;
52872;Laerm;40124;52.198;9.902;2023-10-08T03:48:43;62.78;37.12;81.36;;
52872;Laerm;40124;52.198;9.902;2023-10-08T03:51:10;63.21;36.91;82.38;;
52872;Laerm;40124;52.198;9.902;2023-10-08T03:53:37;56.64;37.32;76.98;;
52872;Laerm;40124;52.198;9.902;2023-10-08T03:56:07;61.44;37.32;79.33;;
52872;Laerm;40124;52.198;9.902;2023-10-08T03:58:33;63.45;36.45;81.56;;
52872;Laerm;40124;52.198;9.902;2023-10-08T04:01:05;41.11;35.36;46.33;;
52872;Laerm;40124;52.198;9.902;2023-10-08T04:03:35;60.55;37.12;79.31;;
52872;Laerm;40124;52.198;9.902;2023-10-08T04:06:21;62.23;36.45;84.46;;
52872;Laerm;40124;52.198;9.902;2023-10-08T04:08:53;51.90;36.91;69.68;;
52872;Laerm;40124;52.198;9.902;2023-10-08T04:11:34;42.21;36.91;55.22;;
52872;Laerm;40124;52.198;9.902;2023-10-08T04:14:08;61.55;37.88;80.03;;
52872;Laerm;40124;52.198;9.902;2023-10-08T04:16:33;42.41;37.88;50.11;;
52872;Laerm;40124;52.198;9.902;2023-10-08T04:19:03;65.24;38.18;80.83;;
52872;Laerm;40124;52.198;9.902;2023-10-08T04:21:28;67.86;40.03;87.61;;
52872;Laerm;40124;52.198;9.902;2023-10-08T04:23:54;56.34;38.05;76.23;;
52872;Laerm;40124;52.198;9.902;2023-10-08T04:26:22;67.13;38.37;83.93;;
52872;Laerm;40124;52.198;9.902;2023-10-08T04:28:58;43.22;38.37;56.87;;
52872;Laerm;40124;52.198;9.902;2023-10-08T04:31:24;62.35;35.94;80.33;;
52872;Laerm;40124;52.198;9.902;2023-10-08T04:34:01;57.60;37.70;76.94;;
52872;Laerm;40124;52.198;9.902;2023-10-08T04:36:26;60.00;38.21;79.75;;
52872;Laerm;40124;52.198;9.902;2023-10-08T04:38:51;56.42;37.52;75.43;;
52872;Laerm;40124;52.198;9.902;2023-10-08T04:41:19;61.36;37.32;78.97;;
52872;Laerm;40124;52.198;9.902;2023-10-08T04:43:47;64.63;38.99;81.20;;
52872;Laerm;40124;52.198;9.902;2023-10-08T04:46:14;41.88;38.21;53.32;;
52872;Laerm;40124;52.198;9.902;2023-10-08T04:48:58;58.52;38.52;76.53;;
52872;Laerm;40124;52.198;9.902;2023-10-08T04:51:24;67.34;39.21;84.49;;
52872;Laerm;40124;52.198;9.902;2023-10-08T04:53:49;57.76;39.34;77.63;;
52872;Laerm;40124;52.198;9.902;2023-10-08T04:56:14;64.21;38.87;81.27;;
52872;Laerm;40124;52.198;9.902;2023-10-08T04:58:46;62.38;40.03;79.49;;
52872;Laerm;40124;52.198;9.902;2023-10-08T05:01:18;61.85;39.08;80.73;;
52872;Laerm;40124;52.198;9.902;2023-10-08T05:03:53;62.42;38.37;83.20;;
52872;Laerm;40124;52.198;9.902;2023-10-08T05:06:28;66.93;39.92;84.06;;
52872;Laerm;40124;52.198;9.902;2023-10-08T05:11:37;61.81;38.67;79.19;;
52872;Laerm;40124;52.198;9.902;2023-10-08T05:14:17;53.61;38.37;73.15;;
52872;Laerm;40124;52.198;9.902;2023-10-08T05:16:56;61.27;39.21;81.11;;
52872;Laerm;40124;52.198;9.902;2023-10-08T05:19:31;59.89;39.08;79.29;;
52872;Laerm;40124;52.198;9.902;2023-10-08T05:22:07;62.67;39.58;77.13;;
52872;Laerm;40124;52.198;9.902;2023-10-08T05:24:51;65.27;39.08;83.42;;
52872;Laerm;40124;52.198;9.902;2023-10-08T05:27:39;65.61;39.21;82.72;;
52872;Laerm;40124;52.198;9.902;2023-10-08T05:30:14;66.32;38.05;83.25;;
52872;Laerm;40124;52.198;9.902;2023-10-08T05:32:52;62.84;38.37;79.59;;
52872;Laerm;40124;52.198;9.902;2023-10-08T05:35:36;64.81;39.21;78.86;;
52872;Laerm;40124;52.198;9.902;2023-10-08T05:38:05;65.26;40.03;81.13;;
52872;Laerm;40124;52.198;9.902;2023-10-08T05:40:48;61.94;37.52;79.06;;
52872;Laerm;40124;52.198;9.902;2023-10-08T05:43:31;64.71;39.46;83.62;;
52872;Laerm;40124;52.198;9.902;2023-10-08T05:45:59;56.22;40.33;76.35;;
52872;Laerm;40124;52.198;9.902;2023-10-08T05:48:44;63.19;39.21;80.71;;
52872;Laerm;40124;52.198;9.902;2023-10-08T05:51:26;47.23;39.81;60.07;;
52872;Laerm;40124;52.198;9.902;2023-10-08T05:54:09;58.20;40.23;75.38;;
52872;Laerm;40124;52.198;9.902;2023-10-08T05:56:49;64.06;39.58;79.47;;
52872;Laerm;40124;52.198;9.902;2023-10-08T06:02:18;46.65;40.71;65.25;;
52872;Laerm;40124;52.198;9.902;2023-10-08T06:04:54;63.51;41.06;78.56;;
52872;Laerm;40124;52.198;9.902;2023-10-08T06:07:37;62.96;41.14;79.27;;
52872;Laerm;40124;52.198;9.902;2023-10-08T06:10:30;65.33;40.53;83.19;;
52872;Laerm;40124;52.198;9.902;2023-10-08T06:13:06;64.52;39.70;79.20;;
52872;Laerm;40124;52.198;9.902;2023-10-08T06:15:44;59.87;39.46;80.24;;
52872;Laerm;40124;52.198;9.902;2023-10-08T06:18:25;70.13;41.53;87.94;;
52872;Laerm;40124;52.198;9.902;2023-10-08T06:20:54;67.43;43.04;81.29;;
52872;Laerm;40124;52.198;9.902;2023-10-08T06:23:20;65.95;40.98;84.20;;
52872;Laerm;40124;52.198;9.902;2023-10-08T06:25:46;63.72;40.13;80.02;;
52872;Laerm;40124;52.198;9.902;2023-10-08T06:28:15;64.78;40.13;79.64;;
52872;Laerm;40124;52.198;9.902;2023-10-08T06:30:43;66.97;41.61;83.12;;
52872;Laerm;40124;52.198;9.902;2023-10-08T06:33:09;66.60;39.70;81.22;;
52872;Laerm;40124;52.198;9.902;2023-10-08T06:35:34;59.65;40.43;78.67;;
52872;Laerm;40124;52.198;9.902;2023-10-08T06:38:00;67.77;43.04;81.21;;
52872;Laerm;40124;52.198;9.902;2023-10-08T06:40:34;65.52;40.53;82.30;;
52872;Laerm;40124;52.198;9.902;2023-10-08T06:43:02;68.01;41.22;81.07;;
52872;Laerm;40124;52.198;9.902;2023-10-08T06:45:42;68.66;40.71;86.26;;
52872;Laerm;40124;52.198;9.902;2023-10-08T06:48:08;70.30;41.14;85.22;;
52872;Laerm;40124;52.198;9.902;2023-10-08T06:50:33;68.41;40.13;83.21;;
52872;Laerm;40124;52.198;9.902;2023-10-08T06:53:04;68.15;44.35;82.26;;
52872;Laerm;40124;52.198;9.902;2023-10-08T06:55:33;68.89;43.58;81.83;;
52872;Laerm;40124;52.198;9.902;2023-10-08T06:58:00;65.57;41.61;83.20;;
52872;Laerm;40124;52.198;9.902;2023-10-08T07:00:25;70.57;42.76;86.61;;
52872;Laerm;40124;52.198;9.902;2023-10-08T07:03:03;66.54;40.98;82.36;;
52872;Laerm;40124;52.198;9.902;2023-10-08T07:05:29;68.43;41.89;80.01;;
52872;Laerm;40124;52.198;9.902;2023-10-08T07:07:54;66.73;40.89;80.95;;
52872;Laerm;40124;52.198;9.902;2023-10-08T07:10:19;67.66;40.80;79.67;;
52872;Laerm;40124;52.198;9.902;2023-10-08T07:12:48;69.85;41.22;83.05;;
52872;Laerm;40124;52.198;9.902;2023-10-08T07:15:13;69.53;43.04;84.43;;
52872;Laerm;40124;52.198;9.902;2023-10-08T07:17:39;70.55;40.62;83.41;;
52872;Laerm;40124;52.198;9.902;2023-10-08T07:20:06;68.96;43.04;81.70;;
52872;Laerm;40124;52.198;9.902;2023-10-08T07:22:38;66.98;40.71;80.91;;
52872;Laerm;40124;52.198;9.902;2023-10-08T07:25:04;69.31;43.19;83.92;;
52872;Laerm;40124;52.198;9.902;2023-10-08T07:27:33;69.68;43.68;81.47;;
52872;Laerm;40124;52.198;9.902;2023-10-08T07:30:02;68.75;44.51;80.78;;
52872;Laerm;40124;52.198;9.902;2023-10-08T07:32:35;65.72;42.41;79.98;;
52872;Laerm;40124;52.198;9.902;2023-10-08T07:35:00;68.37;42.59;82.81;;
52872;Laerm;40124;52.198;9.902;2023-10-08T07:37:44;70.86;45.14;82.68;;
52872;Laerm;40124;52.198;9.902;2023-10-08T07:40:09;68.47;41.61;81.59;;
52872;Laerm;40124;52.198;9.902;2023-10-08T07:42:37;68.15;43.49;81.37;;
52872;Laerm;40124;52.198;9.902;2023-10-08T07:45:02;67.62;44.47;80.48;;
52872;Laerm;40124;52.198;9.902;2023-10-08T07:47:29;68.37;43.90;80.27;;
52872;Laerm;40124;52.198;9.902;2023-10-08T07:49:54;69.86;43.81;81.90;;
52872;Laerm;40124;52.198;9.902;2023-10-08T07:52:20;69.91;47.16;83.28;;
52872;Laerm;40124;52.198;9.902;2023-10-08T07:54:45;70.12;44.49;82.98;;
52872;Laerm;40124;52.198;9.902;2023-10-08T07:57:11;66.34;44.80;79.43;;
52872;Laerm;40124;52.198;9.902;2023-10-08T07:59:51;68.06;44.62;80.48;;
52872;Laerm;40124;52.198;9.902;2023-10-08T08:02:19;69.08;40.80;81.49;;
52872;Laerm;40124;52.198;9.902;2023-10-08T08:04:50;69.02;43.86;84.12;;
52872;Laerm;40124;52.198;9.902;2023-10-08T08:07:16;68.85;44.94;81.90;;
52872;Laerm;40124;52.198;9.902;2023-10-08T08:09:45;69.54;44.27;82.71;;
52872;Laerm;40124;52.198;9.902;2023-10-08T08:12:30;68.53;43.29;80.45;;
52872;Laerm;40124;52.198;9.902;2023-10-08T08:14:57;68.68;41.22;82.73;;
52872;Laerm;40124;52.198;9.902;2023-10-08T08:17:23;67.96;41.22;80.31;;
52872;Laerm;40124;52.198;9.902;2023-10-08T08:19:48;66.89;44.27;80.47;;
52872;Laerm;40124;52.198;9.902;2023-10-08T08:22:14;70.46;45.45;83.14;;
52872;Laerm;40124;52.198;9.902;2023-10-08T08:24:46;69.13;38.21;82.52;;
52872;Laerm;40124;52.198;9.902;2023-10-08T08:27:12;70.31;45.69;82.18;;
52872;Laerm;40124;52.198;9.902;2023-10-08T08:29:48;67.56;44.15;80.86;;
52872;Laerm;40124;52.198;9.902;2023-10-08T08:32:13;69.42;43.29;80.75;;
52872;Laerm;40124;52.198;9.902;2023-10-08T08:34:41;68.44;42.76;82.04;;
52872;Laerm;40124;52.198;9.902;2023-10-08T08:37:09;71.42;43.09;89.81;;
52872;Laerm;40124;52.198;9.902;2023-10-08T08:39:34;65.89;43.24;78.95;;
52872;Laerm;40124;52.198;9.902;2023-10-08T08:42:01;67.86;39.46;81.69;;
52872;Laerm;40124;52.198;9.902;2023-10-08T08:44:29;70.06;43.77;80.88;;
52872;Laerm;40124;52.198;9.902;2023-10-08T08:46:55;67.68;42.59;83.44;;
52872;Laerm;40124;52.198;9.902;2023-10-08T08:49:23;69.72;41.75;83.39;;
52872;Laerm;40124;52.198;9.902;2023-10-08T08:51:48;67.69;46.59;80.11;;
52872;Laerm;40124;52.198;9.902;2023-10-08T08:54:18;67.28;40.43;82.63;;
52872;Laerm;40124;52.198;9.902;2023-10-08T08:56:44;68.71;40.53;84.30;;
52872;Laerm;40124;52.198;9.902;2023-10-08T08:59:09;68.42;42.93;81.38;;
52872;Laerm;40124;52.198;9.902;2023-10-08T09:01:38;67.55;42.03;81.85;;
52872;Laerm;40124;52.198;9.902;2023-10-08T09:04:04;68.18;42.47;81.80;;
52872;Laerm;40124;52.198;9.902;2023-10-08T09:06:39;69.22;45.51;79.60;;
52872;Laerm;40124;52.198;9.902;2023-10-08T09:09:04;66.46;40.03;81.40;;
52872;Laerm;40124;52.198;9.902;2023-10-08T09:11:47;67.17;40.62;79.49;;
52872;Laerm;40124;52.198;9.902;2023-10-08T09:14:12;68.09;43.24;79.79;;
52872;Laerm;40124;52.198;9.902;2023-10-08T09:16:37;68.08;42.47;82.49;;
52872;Laerm;40124;52.198;9.902;2023-10-08T09:19:03;69.77;39.70;82.82;;
52872;Laerm;40124;52.198;9.902;2023-10-08T09:21:29;68.13;43.94;80.90;;
52872;Laerm;40124;52.198;9.902;2023-10-08T09:23:55;67.24;41.53;82.61;;
52872;Laerm;40124;52.198;9.902;2023-10-08T09:26:24;66.80;41.68;79.62;;
52872;Laerm;40124;52.198;9.902;2023-10-08T09:28:49;69.71;39.70;83.33;;
52872;Laerm;40124;52.198;9.902;2023-10-08T09:31:16;66.40;38.95;78.69;;
52872;Laerm;40124;52.198;9.902;2023-10-08T09:33:42;70.76;44.69;81.81;;
52872;Laerm;40124;52.198;9.902;2023-10-08T09:36:08;69.15;45.39;82.36;;
52872;Laerm;40124;52.198;9.902;2023-10-08T09:38:35;66.93;38.52;82.47;;
52872;Laerm;40124;52.198;9.902;2023-10-08T09:41:02;67.39;42.22;80.87;;
52872;Laerm;40124;52.198;9.902;2023-10-08T09:43:27;80.06;43.81;103.11;;
52872;Laerm;40124;52.198;9.902;2023-10-08T09:46:08;67.75;42.03;79.57;;
52872;Laerm;40124;52.198;9.902;2023-10-08T09:48:36;68.11;41.89;79.52;;
52872;Laerm;40124;52.198;9.902;2023-10-08T09:51:02;70.95;42.16;82.19;;
52872;Laerm;40124;52.198;9.902;2023-10-08T09:53:52;69.42;46.62;82.05;;
52872;Laerm;40124;52.198;9.902;2023-10-08T09:56:18;69.61;44.73;86.04;;
52872;Laerm;40124;52.198;9.902;2023-10-08T09:58:44;69.15;43.63;81.66;;
52872;Laerm;40124;52.198;9.902;2023-10-08T10:01:10;70.30;41.75;88.00;;
52872;Laerm;40124;52.198;9.902;2023-10-08T10:03:36;67.51;42.65;81.84;;
52872;Laerm;40124;52.198;9.902;2023-10-08T10:06:02;67.02;43.77;80.08;;
52872;Laerm;40124;52.198;9.902;2023-10-08T10:08:27;68.97;41.14;81.39;;
52872;Laerm;40124;52.198;9.902;2023-10-08T10:10:58;67.35;42.76;80.60;;
52872;Laerm;40124;52.198;9.902;2023-10-08T10:13:24;68.59;46.10;80.41;;
52872;Laerm;40124;52.198;9.902;2023-10-08T10:15:53;70.55;49.47;81.69;;
52872;Laerm;40124;52.198;9.902;2023-10-08T10:20:49;67.31;43.34;82.15;;
52872;Laerm;40124;52.198;9.902;2023-10-08T10:26:01;69.62;43.19;80.55;;
52872;Laerm;40124;52.198;9.902;2023-10-08T10:28:27;74.37;47.70;90.36;;
52872;Laerm;40124;52.198;9.902;2023-10-08T10:30:54;65.91;42.71;79.08;;
52872;Laerm;40124;52.198;9.902;2023-10-08T10:33:20;69.97;46.97;79.27;;
52872;Laerm;40124;52.198;9.902;2023-10-08T10:35:50;68.73;42.47;80.48;;
52872;Laerm;40124;52.198;9.902;2023-10-08T10:38:18;68.97;42.93;81.77;;
52872;Laerm;40124;52.198;9.902;2023-10-08T10:40:43;69.75;42.65;80.81;;
52872;Laerm;40124;52.198;9.902;2023-10-08T10:43:22;68.66;44.52;81.56;;
52872;Laerm;40124;52.198;9.902;2023-10-08T10:45:47;70.21;46.40;83.26;;
52872;Laerm;40124;52.198;9.902;2023-10-08T10:48:13;68.43;45.66;79.34;;
52872;Laerm;40124;52.198;9.902;2023-10-08T10:50:45;70.86;42.98;81.11;;
52872;Laerm;40124;52.198;9.902;2023-10-08T10:53:39;69.66;43.63;81.80;;
52872;Laerm;40124;52.198;9.902;2023-10-08T10:56:33;68.80;42.09;81.35;;
52872;Laerm;40124;52.198;9.902;2023-10-08T10:59:06;68.92;41.22;83.69;;
52872;Laerm;40124;52.198;9.902;2023-10-08T11:01:51;70.30;43.68;82.42;;
52872;Laerm;40124;52.198;9.902;2023-10-08T11:04:36;68.39;44.47;82.51;;
52872;Laerm;40124;52.198;9.902;2023-10-08T11:07:12;67.15;42.93;81.02;;
52872;Laerm;40124;52.198;9.902;2023-10-08T11:09:38;70.02;48.15;80.65;;
52872;Laerm;40124;52.198;9.902;2023-10-08T11:12:04;70.58;45.91;81.49;;
52872;Laerm;40124;52.198;9.902;2023-10-08T11:14:38;69.42;42.09;82.29;;
52872;Laerm;40124;52.198;9.902;2023-10-08T11:17:13;69.56;45.23;81.99;;
52872;Laerm;40124;52.198;9.902;2023-10-08T11:19:42;67.86;41.96;80.91;;
52872;Laerm;40124;52.198;9.902;2023-10-08T11:22:10;67.32;42.03;78.45;;
52872;Laerm;40124;52.198;9.902;2023-10-08T11:24:41;67.23;40.98;80.26;;
52872;Laerm;40124;52.198;9.902;2023-10-08T11:27:07;69.21;43.04;81.00;;
52872;Laerm;40124;52.198;9.902;2023-10-08T11:29:46;69.25;43.44;83.50;;
52872;Laerm;40124;52.198;9.902;2023-10-08T11:32:12;71.28;52.28;82.64;;
52872;Laerm;40124;52.198;9.902;2023-10-08T11:34:38;68.53;44.54;79.47;;
52872;Laerm;40124;52.198;9.902;2023-10-08T11:37:04;71.64;47.98;82.99;;
52872;Laerm;40124;52.198;9.902;2023-10-08T11:39:41;69.62;43.24;80.50;;
52872;Laerm;40124;52.198;9.902;2023-10-08T11:42:14;70.03;42.41;82.10;;
52872;Laerm;40124;52.198;9.902;2023-10-08T11:44:57;70.47;44.83;80.46;;
52872;Laerm;40124;52.198;9.902;2023-10-08T11:47:30;72.18;43.58;89.93;;
52872;Laerm;40124;52.198;9.902;2023-10-08T11:50:00;67.53;39.70;83.66;;
52872;Laerm;40124;52.198;9.902;2023-10-08T11:52:35;68.30;43.58;82.31;;
52872;Laerm;40124;52.198;9.902;2023-10-08T11:55:01;70.26;46.07;81.38;;
52872;Laerm;40124;52.198;9.902;2023-10-08T11:57:26;69.71;44.43;80.93;;
52872;Laerm;40124;52.198;9.902;2023-10-08T11:59:51;69.91;42.82;80.54;;
52872;Laerm;40124;52.198;9.902;2023-10-08T12:02:19;70.06;44.31;82.67;;
52872;Laerm;40124;52.198;9.902;2023-10-08T12:04:45;70.45;46.57;80.95;;
52872;Laerm;40124;52.198;9.902;2023-10-08T12:07:12;68.62;43.77;79.13;;
52872;Laerm;40124;52.198;9.902;2023-10-08T12:09:42;69.24;44.47;79.77;;
52872;Laerm;40124;52.198;9.902;2023-10-08T12:12:07;69.24;41.14;80.58;;
52872;Laerm;40124;52.198;9.902;2023-10-08T12:14:35;70.98;47.34;84.14;;
52872;Laerm;40124;52.198;9.902;2023-10-08T12:17:00;69.48;49.78;79.94;;
52872;Laerm;40124;52.198;9.902;2023-10-08T12:19:25;70.25;44.58;80.54;;
52872;Laerm;40124;52.198;9.902;2023-10-08T12:21:51;71.17;49.15;81.60;;
52872;Laerm;40124;52.198;9.902;2023-10-08T12:24:18;71.54;45.72;88.47;;
52872;Laerm;40124;52.198;9.902;2023-10-08T12:26:44;69.89;45.01;81.10;;
52872;Laerm;40124;52.198;9.902;2023-10-08T12:29:14;68.81;46.84;82.53;;
52872;Laerm;40124;52.198;9.902;2023-10-08T12:31:41;69.06;43.77;79.84;;
52872;Laerm;40124;52.198;9.902;2023-10-08T12:34:07;69.25;44.97;83.03;;
52872;Laerm;40124;52.198;9.902;2023-10-08T12:36:36;69.82;48.70;80.36;;
52872;Laerm;40124;52.198;9.902;2023-10-08T12:39:01;71.20;48.12;81.15;;
52872;Laerm;40124;52.198;9.902;2023-10-08T12:41:33;73.94;50.84;90.95;;
52872;Laerm;40124;52.198;9.902;2023-10-08T12:44:03;67.65;44.31;79.40;;
52872;Laerm;40124;52.198;9.902;2023-10-08T12:46:32;70.43;42.53;84.95;;
52872;Laerm;40124;52.198;9.902;2023-10-08T12:48:58;69.82;44.23;83.12;;
52872;Laerm;40124;52.198;9.902;2023-10-08T12:51:26;70.48;50.37;82.87;;
52872;Laerm;40124;52.198;9.902;2023-10-08T12:53:52;69.26;45.42;82.94;;
52872;Laerm;40124;52.198;9.902;2023-10-08T12:56:24;68.13;43.14;79.99;;
52872;Laerm;40124;52.198;9.902;2023-10-08T12:58:57;70.47;45.48;84.34;;
52872;Laerm;40124;52.198;9.902;2023-10-08T13:01:22;70.19;52.38;83.45;;
52872;Laerm;40124;52.198;9.902;2023-10-08T13:03:47;70.07;47.32;79.81;;
52872;Laerm;40124;52.198;9.902;2023-10-08T13:06:13;70.64;45.48;80.46;;
52872;Laerm;40124;52.198;9.902;2023-10-08T13:08:51;69.54;45.91;79.84;;
52872;Laerm;40124;52.198;9.902;2023-10-08T13:11:21;70.60;46.35;81.00;;
52872;Laerm;40124;52.198;9.902;2023-10-08T13:13:50;70.23;42.98;85.16;;
52872;Laerm;40124;52.198;9.902;2023-10-08T13:16:15;69.36;45.69;82.00;;
52872;Laerm;40124;52.198;9.902;2023-10-08T13:18:40;70.13;44.35;80.37;;
52872;Laerm;40124;52.198;9.902;2023-10-08T13:21:08;73.87;46.15;90.41;;
52872;Laerm;40124;52.198;9.902;2023-10-08T13:23:34;70.02;50.46;80.57;;
52872;Laerm;40124;52.198;9.902;2023-10-08T13:26:00;69.95;45.99;80.40;;
52872;Laerm;40124;52.198;9.902;2023-10-08T13:28:29;70.07;46.33;79.56;;
52872;Laerm;40124;52.198;9.902;2023-10-08T13:30:55;69.81;45.94;81.27;;
52872;Laerm;40124;52.198;9.902;2023-10-08T13:33:20;66.52;39.81;80.95;;
52872;Laerm;40124;52.198;9.902;2023-10-08T13:35:47;68.97;43.63;81.01;;
52872;Laerm;40124;52.198;9.902;2023-10-08T13:38:14;69.46;44.90;81.45;;
52872;Laerm;40124;52.198;9.902;2023-10-08T13:40:41;68.98;43.94;79.81;;
52872;Laerm;40124;52.198;9.902;2023-10-08T13:43:11;68.37;44.03;80.98;;
52872;Laerm;40124;52.198;9.902;2023-10-08T13:45:37;70.46;45.30;84.25;;
52872;Laerm;40124;52.198;9.902;2023-10-08T13:48:04;68.68;44.43;80.01;;
52872;Laerm;40124;52.198;9.902;2023-10-08T13:50:30;70.43;48.23;81.99;;
52872;Laerm;40124;52.198;9.902;2023-10-08T13:52:56;66.47;45.77;79.31;;
52872;Laerm;40124;52.198;9.902;2023-10-08T13:55:21;68.93;46.13;80.75;;
52872;Laerm;40124;52.198;9.902;2023-10-08T13:57:50;70.20;50.51;84.07;;
52872;Laerm;40124;52.198;9.902;2023-10-08T14:00:15;72.75;45.33;88.11;;
52872;Laerm;40124;52.198;9.902;2023-10-08T14:02:41;70.23;43.81;83.59;;
52872;Laerm;40124;52.198;9.902;2023-10-08T14:05:07;68.42;45.23;79.90;;
52872;Laerm;40124;52.198;9.902;2023-10-08T14:07:34;68.91;45.20;80.84;;